Terminal Aerodrome Forecast
Issued by NWS Duluth, MN

Home | Current Version | Previous Version | Text Only | Print | Product List | Glossary On
Versions: 1 2 3 4 5 6 7 8 9 10 11 12 13 14 15 16 17 18 19 20 21 22 23 24 25 26 27 28 29 30 31 32
000
FTUS43 KDLH 271737
TAFDLH
TAF
KDLH 271737Z 2718/2818 11004KT P6SM -RA OVC080
     FM280400 07006KT 3SM -SHRA BR OVC007
     FM280800 07004KT 1 1/2SM BR OVC002
     FM281600 09004KT 3SM BR OVC004=

USA.gov is the U.S. government's official web portal to all federal, state and local government web resources and services.